sensor_id;sensor_type;location;lat;lon;timestamp;P1;durP1;ratioP1;P2;durP2;ratioP2
13991;SDS011;7070;53.586;9.692;2023-04-22T00:02:12;0.50;;;0.50;;
13991;SDS011;7070;53.586;9.692;2023-04-22T00:04:40;0.50;;;0.50;;
13991;SDS011;7070;53.586;9.692;2023-04-22T00:07:11;0.50;;;0.50;;
13991;SDS011;7070;53.586;9.692;2023-04-22T00:09:38;0.50;;;0.50;;
13991;SDS011;7070;53.586;9.692;2023-04-22T00:12:05;0.50;;;0.50;;
13991;SDS011;7070;53.586;9.692;2023-04-22T00:14:32;0.50;;;0.50;;
13991;SDS011;7070;53.586;9.692;2023-04-22T00:16:59;0.50;;;0.50;;
13991;SDS011;7070;53.586;9.692;2023-04-22T00:19:27;0.60;;;0.60;;
13991;SDS011;7070;53.586;9.692;2023-04-22T00:21:54;0.50;;;0.50;;
13991;SDS011;7070;53.586;9.692;2023-04-22T00:24:22;0.50;;;0.50;;
13991;SDS011;7070;53.586;9.692;2023-04-22T00:26:49;0.60;;;0.60;;
13991;SDS011;7070;53.586;9.692;2023-04-22T00:29:15;0.50;;;0.50;;
13991;SDS011;7070;53.586;9.692;2023-04-22T00:31:42;0.50;;;0.50;;
13991;SDS011;7070;53.586;9.692;2023-04-22T00:34:09;0.50;;;0.50;;
13991;SDS011;7070;53.586;9.692;2023-04-22T00:36:36;0.50;;;0.50;;
13991;SDS011;7070;53.586;9.692;2023-04-22T00:39:03;0.50;;;0.50;;
13991;SDS011;7070;53.586;9.692;2023-04-22T00:41:32;0.50;;;0.50;;
13991;SDS011;7070;53.586;9.692;2023-04-22T00:43:59;0.50;;;0.50;;
13991;SDS011;7070;53.586;9.692;2023-04-22T00:46:26;0.50;;;0.50;;
13991;SDS011;7070;53.586;9.692;2023-04-22T00:48:53;0.60;;;0.60;;
13991;SDS011;7070;53.586;9.692;2023-04-22T00:51:21;0.40;;;0.40;;
13991;SDS011;7070;53.586;9.692;2023-04-22T00:53:48;0.50;;;0.50;;
13991;SDS011;7070;53.586;9.692;2023-04-22T00:56:15;0.60;;;0.60;;
13991;SDS011;7070;53.586;9.692;2023-04-22T00:58:43;0.60;;;0.60;;
13991;SDS011;7070;53.586;9.692;2023-04-22T01:01:10;0.50;;;0.50;;
13991;SDS011;7070;53.586;9.692;2023-04-22T01:03:37;0.50;;;0.50;;
13991;SDS011;7070;53.586;9.692;2023-04-22T01:06:05;0.50;;;0.50;;
13991;SDS011;7070;53.586;9.692;2023-04-22T01:08:33;0.50;;;0.50;;
13991;SDS011;7070;53.586;9.692;2023-04-22T01:11:00;0.50;;;0.50;;
13991;SDS011;7070;53.586;9.692;2023-04-22T01:13:28;0.50;;;0.50;;
13991;SDS011;7070;53.586;9.692;2023-04-22T01:15:58;0.50;;;0.50;;
13991;SDS011;7070;53.586;9.692;2023-04-22T01:18:26;0.50;;;0.50;;
13991;SDS011;7070;53.586;9.692;2023-04-22T01:20:53;0.50;;;0.50;;
13991;SDS011;7070;53.586;9.692;2023-04-22T01:23:22;0.60;;;0.60;;
13991;SDS011;7070;53.586;9.692;2023-04-22T01:25:49;0.50;;;0.50;;
13991;SDS011;7070;53.586;9.692;2023-04-22T01:28:17;0.50;;;0.50;;
13991;SDS011;7070;53.586;9.692;2023-04-22T01:30:44;0.50;;;0.50;;
13991;SDS011;7070;53.586;9.692;2023-04-22T01:33:11;0.50;;;0.50;;
13991;SDS011;7070;53.586;9.692;2023-04-22T01:35:38;0.50;;;0.50;;
13991;SDS011;7070;53.586;9.692;2023-04-22T01:38:06;0.50;;;0.50;;
13991;SDS011;7070;53.586;9.692;2023-04-22T01:40:35;0.50;;;0.50;;
13991;SDS011;7070;53.586;9.692;2023-04-22T01:43:03;0.40;;;0.40;;
13991;SDS011;7070;53.586;9.692;2023-04-22T01:45:30;0.50;;;0.50;;
13991;SDS011;7070;53.586;9.692;2023-04-22T01:47:57;0.50;;;0.50;;
13991;SDS011;7070;53.586;9.692;2023-04-22T01:50:24;0.50;;;0.50;;
13991;SDS011;7070;53.586;9.692;2023-04-22T01:52:51;0.50;;;0.50;;
13991;SDS011;7070;53.586;9.692;2023-04-22T01:55:18;0.50;;;0.50;;
13991;SDS011;7070;53.586;9.692;2023-04-22T01:57:46;0.50;;;0.50;;
13991;SDS011;7070;53.586;9.692;2023-04-22T02:00:13;0.53;;;0.53;;
13991;SDS011;7070;53.586;9.692;2023-04-22T02:02:40;0.60;;;0.60;;
13991;SDS011;7070;53.586;9.692;2023-04-22T02:05:07;0.60;;;0.60;;
13991;SDS011;7070;53.586;9.692;2023-04-22T02:07:35;0.50;;;0.50;;
13991;SDS011;7070;53.586;9.692;2023-04-22T02:10:02;0.60;;;0.60;;
13991;SDS011;7070;53.586;9.692;2023-04-22T02:12:29;0.50;;;0.50;;
13991;SDS011;7070;53.586;9.692;2023-04-22T02:14:58;0.50;;;0.50;;
13991;SDS011;7070;53.586;9.692;2023-04-22T02:17:24;0.50;;;0.50;;
13991;SDS011;7070;53.586;9.692;2023-04-22T02:19:51;0.50;;;0.50;;
13991;SDS011;7070;53.586;9.692;2023-04-22T02:22:18;0.50;;;0.50;;
13991;SDS011;7070;53.586;9.692;2023-04-22T02:24:46;0.50;;;0.50;;
13991;SDS011;7070;53.586;9.692;2023-04-22T02:27:13;0.60;;;0.60;;
13991;SDS011;7070;53.586;9.692;2023-04-22T02:29:40;0.50;;;0.50;;
13991;SDS011;7070;53.586;9.692;2023-04-22T02:32:08;0.50;;;0.50;;
13991;SDS011;7070;53.586;9.692;2023-04-22T02:34:35;0.60;;;0.60;;
13991;SDS011;7070;53.586;9.692;2023-04-22T02:37:02;0.53;;;0.53;;
13991;SDS011;7070;53.586;9.692;2023-04-22T02:39:29;0.50;;;0.50;;
13991;SDS011;7070;53.586;9.692;2023-04-22T02:41:56;0.50;;;0.50;;
13991;SDS011;7070;53.586;9.692;2023-04-22T02:44:23;0.50;;;0.50;;
13991;SDS011;7070;53.586;9.692;2023-04-22T02:46:50;0.50;;;0.50;;
13991;SDS011;7070;53.586;9.692;2023-04-22T02:49:18;0.57;;;0.57;;
13991;SDS011;7070;53.586;9.692;2023-04-22T02:51:45;0.50;;;0.50;;
13991;SDS011;7070;53.586;9.692;2023-04-22T02:54:12;0.50;;;0.50;;
13991;SDS011;7070;53.586;9.692;2023-04-22T02:56:39;0.53;;;0.53;;
13991;SDS011;7070;53.586;9.692;2023-04-22T02:59:05;0.50;;;0.50;;
13991;SDS011;7070;53.586;9.692;2023-04-22T03:01:32;0.40;;;0.40;;
13991;SDS011;7070;53.586;9.692;2023-04-22T03:03:59;0.60;;;0.60;;
13991;SDS011;7070;53.586;9.692;2023-04-22T03:06:27;0.50;;;0.50;;
13991;SDS011;7070;53.586;9.692;2023-04-22T03:08:55;0.50;;;0.50;;
13991;SDS011;7070;53.586;9.692;2023-04-22T03:11:22;0.50;;;0.50;;
13991;SDS011;7070;53.586;9.692;2023-04-22T03:13:49;0.60;;;0.60;;
13991;SDS011;7070;53.586;9.692;2023-04-22T03:16:16;0.60;;;0.60;;
13991;SDS011;7070;53.586;9.692;2023-04-22T03:18:43;0.50;;;0.50;;
13991;SDS011;7070;53.586;9.692;2023-04-22T03:21:10;0.50;;;0.50;;
13991;SDS011;7070;53.586;9.692;2023-04-22T03:23:38;0.50;;;0.50;;
13991;SDS011;7070;53.586;9.692;2023-04-22T03:26:05;0.50;;;0.50;;
13991;SDS011;7070;53.586;9.692;2023-04-22T03:28:32;0.50;;;0.50;;
13991;SDS011;7070;53.586;9.692;2023-04-22T03:30:59;0.50;;;0.50;;
13991;SDS011;7070;53.586;9.692;2023-04-22T03:33:26;0.50;;;0.50;;
13991;SDS011;7070;53.586;9.692;2023-04-22T03:35:52;0.50;;;0.50;;
13991;SDS011;7070;53.586;9.692;2023-04-22T03:38:20;0.57;;;0.57;;
13991;SDS011;7070;53.586;9.692;2023-04-22T03:40:48;0.50;;;0.50;;
13991;SDS011;7070;53.586;9.692;2023-04-22T03:43:15;0.50;;;0.50;;
13991;SDS011;7070;53.586;9.692;2023-04-22T03:45:42;0.50;;;0.50;;
13991;SDS011;7070;53.586;9.692;2023-04-22T03:48:09;0.50;;;0.50;;
13991;SDS011;7070;53.586;9.692;2023-04-22T03:50:36;0.60;;;0.60;;
13991;SDS011;7070;53.586;9.692;2023-04-22T03:53:03;0.50;;;0.50;;
13991;SDS011;7070;53.586;9.692;2023-04-22T03:55:30;0.50;;;0.50;;
13991;SDS011;7070;53.586;9.692;2023-04-22T03:57:58;0.50;;;0.50;;
13991;SDS011;7070;53.586;9.692;2023-04-22T04:00:25;0.50;;;0.50;;
13991;SDS011;7070;53.586;9.692;2023-04-22T04:02:53;0.50;;;0.50;;
13991;SDS011;7070;53.586;9.692;2023-04-22T04:05:20;0.60;;;0.60;;
13991;SDS011;7070;53.586;9.692;2023-04-22T04:07:47;0.50;;;0.50;;
13991;SDS011;7070;53.586;9.692;2023-04-22T04:10:14;0.53;;;0.53;;
13991;SDS011;7070;53.586;9.692;2023-04-22T04:12:41;0.60;;;0.60;;
13991;SDS011;7070;53.586;9.692;2023-04-22T04:15:09;0.60;;;0.60;;
13991;SDS011;7070;53.586;9.692;2023-04-22T04:17:37;0.50;;;0.50;;
13991;SDS011;7070;53.586;9.692;2023-04-22T04:20:04;0.50;;;0.50;;
13991;SDS011;7070;53.586;9.692;2023-04-22T04:22:32;0.50;;;0.50;;
13991;SDS011;7070;53.586;9.692;2023-04-22T04:25:00;0.60;;;0.60;;
13991;SDS011;7070;53.586;9.692;2023-04-22T04:27:27;0.50;;;0.50;;
13991;SDS011;7070;53.586;9.692;2023-04-22T04:29:54;0.50;;;0.50;;
13991;SDS011;7070;53.586;9.692;2023-04-22T04:32:22;0.60;;;0.60;;
13991;SDS011;7070;53.586;9.692;2023-04-22T04:34:49;0.50;;;0.50;;
13991;SDS011;7070;53.586;9.692;2023-04-22T04:37:18;0.50;;;0.50;;
13991;SDS011;7070;53.586;9.692;2023-04-22T04:39:46;0.50;;;0.50;;
13991;SDS011;7070;53.586;9.692;2023-04-22T04:42:14;0.50;;;0.50;;
13991;SDS011;7070;53.586;9.692;2023-04-22T04:44:40;0.50;;;0.50;;
13991;SDS011;7070;53.586;9.692;2023-04-22T04:47:07;0.50;;;0.50;;
13991;SDS011;7070;53.586;9.692;2023-04-22T04:49:35;0.40;;;0.40;;
13991;SDS011;7070;53.586;9.692;2023-04-22T04:52:04;0.50;;;0.50;;
13991;SDS011;7070;53.586;9.692;2023-04-22T04:54:31;0.60;;;0.60;;
13991;SDS011;7070;53.586;9.692;2023-04-22T04:56:58;0.50;;;0.50;;
13991;SDS011;7070;53.586;9.692;2023-04-22T04:59:25;0.50;;;0.50;;
13991;SDS011;7070;53.586;9.692;2023-04-22T05:01:52;0.50;;;0.50;;
13991;SDS011;7070;53.586;9.692;2023-04-22T05:04:20;0.50;;;0.50;;
13991;SDS011;7070;53.586;9.692;2023-04-22T05:06:48;0.50;;;0.50;;
13991;SDS011;7070;53.586;9.692;2023-04-22T05:09:15;0.50;;;0.50;;
13991;SDS011;7070;53.586;9.692;2023-04-22T05:11:42;0.53;;;0.53;;
13991;SDS011;7070;53.586;9.692;2023-04-22T05:14:09;0.50;;;0.50;;
13991;SDS011;7070;53.586;9.692;2023-04-22T05:16:36;0.50;;;0.50;;
13991;SDS011;7070;53.586;9.692;2023-04-22T05:19:03;0.60;;;0.60;;
13991;SDS011;7070;53.586;9.692;2023-04-22T05:21:30;0.60;;;0.60;;
13991;SDS011;7070;53.586;9.692;2023-04-22T05:23:58;0.50;;;0.50;;
13991;SDS011;7070;53.586;9.692;2023-04-22T05:26:25;0.50;;;0.50;;
13991;SDS011;7070;53.586;9.692;2023-04-22T05:28:52;0.50;;;0.50;;
13991;SDS011;7070;53.586;9.692;2023-04-22T05:31:19;0.50;;;0.50;;
13991;SDS011;7070;53.586;9.692;2023-04-22T05:33:46;0.50;;;0.50;;
13991;SDS011;7070;53.586;9.692;2023-04-22T05:36:13;0.50;;;0.50;;
13991;SDS011;7070;53.586;9.692;2023-04-22T05:38:39;0.60;;;0.60;;
13991;SDS011;7070;53.586;9.692;2023-04-22T05:41:08;0.50;;;0.50;;
13991;SDS011;7070;53.586;9.692;2023-04-22T05:43:34;0.47;;;0.47;;
13991;SDS011;7070;53.586;9.692;2023-04-22T05:46:01;0.50;;;0.50;;
13991;SDS011;7070;53.586;9.692;2023-04-22T05:48:28;0.40;;;0.40;;
13991;SDS011;7070;53.586;9.692;2023-04-22T05:50:55;0.50;;;0.50;;
13991;SDS011;7070;53.586;9.692;2023-04-22T05:53:22;0.50;;;0.50;;
13991;SDS011;7070;53.586;9.692;2023-04-22T05:55:49;0.40;;;0.40;;
13991;SDS011;7070;53.586;9.692;2023-04-22T05:58:17;0.50;;;0.50;;
13991;SDS011;7070;53.586;9.692;2023-04-22T06:00:44;0.50;;;0.50;;
13991;SDS011;7070;53.586;9.692;2023-04-22T06:03:11;0.50;;;0.50;;
13991;SDS011;7070;53.586;9.692;2023-04-22T06:05:38;0.50;;;0.50;;
13991;SDS011;7070;53.586;9.692;2023-04-22T06:08:05;0.50;;;0.50;;
13991;SDS011;7070;53.586;9.692;2023-04-22T06:10:31;0.40;;;0.40;;
13991;SDS011;7070;53.586;9.692;2023-04-22T06:12:58;0.40;;;0.40;;
13991;SDS011;7070;53.586;9.692;2023-04-22T06:15:27;0.40;;;0.40;;
13991;SDS011;7070;53.586;9.692;2023-04-22T06:17:54;0.50;;;0.50;;
13991;SDS011;7070;53.586;9.692;2023-04-22T06:20:20;0.50;;;0.50;;
13991;SDS011;7070;53.586;9.692;2023-04-22T06:22:47;0.50;;;0.50;;
13991;SDS011;7070;53.586;9.692;2023-04-22T06:25:15;0.40;;;0.40;;
13991;SDS011;7070;53.586;9.692;2023-04-22T06:27:42;0.50;;;0.50;;
13991;SDS011;7070;53.586;9.692;2023-04-22T06:30:09;0.50;;;0.50;;
13991;SDS011;7070;53.586;9.692;2023-04-22T06:32:37;0.40;;;0.40;;
13991;SDS011;7070;53.586;9.692;2023-04-22T06:35:04;0.40;;;0.40;;
13991;SDS011;7070;53.586;9.692;2023-04-22T06:37:32;0.47;;;0.47;;
13991;SDS011;7070;53.586;9.692;2023-04-22T06:39:59;0.40;;;0.40;;
13991;SDS011;7070;53.586;9.692;2023-04-22T06:42:26;0.40;;;0.40;;
13991;SDS011;7070;53.586;9.692;2023-04-22T06:44:53;0.50;;;0.50;;
13991;SDS011;7070;53.586;9.692;2023-04-22T06:47:19;0.40;;;0.40;;
13991;SDS011;7070;53.586;9.692;2023-04-22T06:49:48;0.40;;;0.40;;
13991;SDS011;7070;53.586;9.692;2023-04-22T06:52:15;0.40;;;0.40;;
13991;SDS011;7070;53.586;9.692;2023-04-22T06:54:42;0.40;;;0.40;;
13991;SDS011;7070;53.586;9.692;2023-04-22T06:57:09;0.50;;;0.50;;
13991;SDS011;7070;53.586;9.692;2023-04-22T06:59:36;0.50;;;0.50;;
13991;SDS011;7070;53.586;9.692;2023-04-22T07:02:02;0.50;;;0.50;;
13991;SDS011;7070;53.586;9.692;2023-04-22T07:04:30;0.50;;;0.50;;
13991;SDS011;7070;53.586;9.692;2023-04-22T07:06:58;0.40;;;0.40;;
13991;SDS011;7070;53.586;9.692;2023-04-22T07:09:25;0.43;;;0.43;;
13991;SDS011;7070;53.586;9.692;2023-04-22T07:11:53;0.40;;;0.40;;
13991;SDS011;7070;53.586;9.692;2023-04-22T07:14:23;0.40;;;0.40;;
13991;SDS011;7070;53.586;9.692;2023-04-22T07:16:50;0.50;;;0.50;;
13991;SDS011;7070;53.586;9.692;2023-04-22T07:19:17;0.50;;;0.50;;
13991;SDS011;7070;53.586;9.692;2023-04-22T07:21:44;0.40;;;0.40;;
13991;SDS011;7070;53.586;9.692;2023-04-22T07:24:12;0.40;;;0.40;;
13991;SDS011;7070;53.586;9.692;2023-04-22T07:26:40;0.40;;;0.40;;
13991;SDS011;7070;53.586;9.692;2023-04-22T07:29:10;0.50;;;0.50;;
13991;SDS011;7070;53.586;9.692;2023-04-22T07:31:37;0.47;;;0.47;;
13991;SDS011;7070;53.586;9.692;2023-04-22T07:34:04;0.40;;;0.40;;
13991;SDS011;7070;53.586;9.692;2023-04-22T07:36:31;0.33;;;0.33;;
13991;SDS011;7070;53.586;9.692;2023-04-22T07:38:58;0.50;;;0.50;;
13991;SDS011;7070;53.586;9.692;2023-04-22T07:41:26;0.50;;;0.50;;
13991;SDS011;7070;53.586;9.692;2023-04-22T07:43:53;0.40;;;0.40;;
13991;SDS011;7070;53.586;9.692;2023-04-22T07:46:20;0.50;;;0.50;;
13991;SDS011;7070;53.586;9.692;2023-04-22T07:48:48;0.50;;;0.50;;
13991;SDS011;7070;53.586;9.692;2023-04-22T07:51:15;0.40;;;0.40;;
13991;SDS011;7070;53.586;9.692;2023-04-22T07:53:42;0.40;;;0.40;;
13991;SDS011;7070;53.586;9.692;2023-04-22T07:56:09;0.37;;;0.37;;
13991;SDS011;7070;53.586;9.692;2023-04-22T07:58:38;0.40;;;0.40;;
13991;SDS011;7070;53.586;9.692;2023-04-22T08:01:05;0.47;;;0.47;;
13991;SDS011;7070;53.586;9.692;2023-04-22T08:03:32;0.50;;;0.50;;
13991;SDS011;7070;53.586;9.692;2023-04-22T08:05:59;0.43;;;0.43;;
13991;SDS011;7070;53.586;9.692;2023-04-22T08:08:26;0.40;;;0.40;;
13991;SDS011;7070;53.586;9.692;2023-04-22T08:10:54;0.40;;;0.40;;
13991;SDS011;7070;53.586;9.692;2023-04-22T08:13:22;0.40;;;0.40;;
13991;SDS011;7070;53.586;9.692;2023-04-22T08:15:51;0.40;;;0.40;;
13991;SDS011;7070;53.586;9.692;2023-04-22T08:18:18;0.40;;;0.40;;
13991;SDS011;7070;53.586;9.692;2023-04-22T08:20:46;0.40;;;0.40;;
13991;SDS011;7070;53.586;9.692;2023-04-22T08:23:13;0.40;;;0.40;;
13991;SDS011;7070;53.586;9.692;2023-04-22T08:25:40;0.40;;;0.40;;
13991;SDS011;7070;53.586;9.692;2023-04-22T08:28:07;0.40;;;0.40;;
13991;SDS011;7070;53.586;9.692;2023-04-22T08:30:35;0.40;;;0.40;;
13991;SDS011;7070;53.586;9.692;2023-04-22T08:33:03;0.40;;;0.40;;
13991;SDS011;7070;53.586;9.692;2023-04-22T08:35:30;0.40;;;0.40;;
13991;SDS011;7070;53.586;9.692;2023-04-22T08:37:59;0.40;;;0.40;;
13991;SDS011;7070;53.586;9.692;2023-04-22T08:40:26;0.40;;;0.40;;
13991;SDS011;7070;53.586;9.692;2023-04-22T08:42:53;0.40;;;0.40;;
13991;SDS011;7070;53.586;9.692;2023-04-22T08:45:21;0.40;;;0.40;;
13991;SDS011;7070;53.586;9.692;2023-04-22T08:47:48;0.40;;;0.40;;
13991;SDS011;7070;53.586;9.692;2023-04-22T08:50:16;0.40;;;0.40;;
13991;SDS011;7070;53.586;9.692;2023-04-22T08:52:46;0.37;;;0.37;;
13991;SDS011;7070;53.586;9.692;2023-04-22T08:55:12;0.40;;;0.40;;
13991;SDS011;7070;53.586;9.692;2023-04-22T08:57:39;0.30;;;0.30;;
13991;SDS011;7070;53.586;9.692;2023-04-22T09:00:07;0.30;;;0.30;;
13991;SDS011;7070;53.586;9.692;2023-04-22T09:02:35;0.40;;;0.40;;
13991;SDS011;7070;53.586;9.692;2023-04-22T09:05:04;0.30;;;0.30;;
13991;SDS011;7070;53.586;9.692;2023-04-22T09:07:35;0.50;;;0.50;;
13991;SDS011;7070;53.586;9.692;2023-04-22T09:10:05;0.30;;;0.30;;
13991;SDS011;7070;53.586;9.692;2023-04-22T09:12:33;0.40;;;0.40;;
13991;SDS011;7070;53.586;9.692;2023-04-22T09:14:59;0.40;;;0.40;;
13991;SDS011;7070;53.586;9.692;2023-04-22T09:17:30;0.30;;;0.30;;
13991;SDS011;7070;53.586;9.692;2023-04-22T09:19:58;0.30;;;0.30;;
13991;SDS011;7070;53.586;9.692;2023-04-22T09:22:26;0.40;;;0.40;;
13991;SDS011;7070;53.586;9.692;2023-04-22T09:24:54;0.37;;;0.37;;
13991;SDS011;7070;53.586;9.692;2023-04-22T09:27:22;0.30;;;0.30;;
13991;SDS011;7070;53.586;9.692;2023-04-22T09:29:50;0.40;;;0.40;;
13991;SDS011;7070;53.586;9.692;2023-04-22T09:32:17;0.30;;;0.30;;
13991;SDS011;7070;53.586;9.692;2023-04-22T09:34:48;0.30;;;0.30;;
13991;SDS011;7070;53.586;9.692;2023-04-22T09:37:17;0.30;;;0.30;;
13991;SDS011;7070;53.586;9.692;2023-04-22T09:39:47;0.30;;;0.30;;
13991;SDS011;7070;53.586;9.692;2023-04-22T09:42:16;0.30;;;0.30;;
13991;SDS011;7070;53.586;9.692;2023-04-22T09:44:43;0.30;;;0.30;;
13991;SDS011;7070;53.586;9.692;2023-04-22T09:47:11;0.30;;;0.30;;
13991;SDS011;7070;53.586;9.692;2023-04-22T09:49:38;0.37;;;0.37;;
13991;SDS011;7070;53.586;9.692;2023-04-22T09:52:05;0.30;;;0.30;;
13991;SDS011;7070;53.586;9.692;2023-04-22T09:54:32;0.30;;;0.30;;
13991;SDS011;7070;53.586;9.692;2023-04-22T09:57:02;0.30;;;0.30;;
13991;SDS011;7070;53.586;9.692;2023-04-22T09:59:30;0.30;;;0.30;;
13991;SDS011;7070;53.586;9.692;2023-04-22T10:01:58;0.30;;;0.30;;
13991;SDS011;7070;53.586;9.692;2023-04-22T10:04:27;0.40;;;0.40;;
13991;SDS011;7070;53.586;9.692;2023-04-22T10:06:55;0.30;;;0.30;;
13991;SDS011;7070;53.586;9.692;2023-04-22T10:09:24;0.33;;;0.33;;
13991;SDS011;7070;53.586;9.692;2023-04-22T10:11:51;0.40;;;0.40;;
13991;SDS011;7070;53.586;9.692;2023-04-22T10:14:22;0.30;;;0.30;;
13991;SDS011;7070;53.586;9.692;2023-04-22T10:16:51;0.30;;;0.30;;
13991;SDS011;7070;53.586;9.692;2023-04-22T10:19:22;0.30;;;0.30;;
13991;SDS011;7070;53.586;9.692;2023-04-22T10:21:52;0.30;;;0.30;;
13991;SDS011;7070;53.586;9.692;2023-04-22T10:24:23;0.30;;;0.30;;
13991;SDS011;7070;53.586;9.692;2023-04-22T10:26:52;0.30;;;0.30;;
13991;SDS011;7070;53.586;9.692;2023-04-22T10:29:21;0.33;;;0.33;;
13991;SDS011;7070;53.586;9.692;2023-04-22T10:31:54;0.30;;;0.30;;
13991;SDS011;7070;53.586;9.692;2023-04-22T10:34:29;0.30;;;0.30;;
13991;SDS011;7070;53.586;9.692;2023-04-22T10:36:58;0.40;;;0.40;;
13991;SDS011;7070;53.586;9.692;2023-04-22T10:39:27;0.30;;;0.30;;
13991;SDS011;7070;53.586;9.692;2023-04-22T10:42:04;0.30;;;0.30;;
13991;SDS011;7070;53.586;9.692;2023-04-22T10:44:44;0.30;;;0.30;;
13991;SDS011;7070;53.586;9.692;2023-04-22T10:47:24;0.40;;;0.40;;
13991;SDS011;7070;53.586;9.692;2023-04-22T10:52:34;0.30;;;0.30;;
13991;SDS011;7070;53.586;9.692;2023-04-22T10:55:01;0.30;;;0.30;;
13991;SDS011;7070;53.586;9.692;2023-04-22T10:57:29;0.30;;;0.30;;
13991;SDS011;7070;53.586;9.692;2023-04-22T11:03:07;0.30;;;0.30;;
13991;SDS011;7070;53.586;9.692;2023-04-22T11:05:36;0.30;;;0.30;;
13991;SDS011;7070;53.586;9.692;2023-04-22T11:08:04;0.33;;;0.33;;
13991;SDS011;7070;53.586;9.692;2023-04-22T11:10:33;0.30;;;0.30;;
13991;SDS011;7070;53.586;9.692;2023-04-22T11:13:05;0.30;;;0.30;;
13991;SDS011;7070;53.586;9.692;2023-04-22T11:15:33;0.30;;;0.30;;
13991;SDS011;7070;53.586;9.692;2023-04-22T11:18:01;0.30;;;0.30;;
13991;SDS011;7070;53.586;9.692;2023-04-22T11:20:30;0.30;;;0.30;;
13991;SDS011;7070;53.586;9.692;2023-04-22T11:22:57;0.30;;;0.30;;
13991;SDS011;7070;53.586;9.692;2023-04-22T11:25:24;0.30;;;0.30;;
13991;SDS011;7070;53.586;9.692;2023-04-22T11:27:52;0.30;;;0.30;;
13991;SDS011;7070;53.586;9.692;2023-04-22T11:30:19;0.30;;;0.30;;
13991;SDS011;7070;53.586;9.692;2023-04-22T11:32:47;0.30;;;0.30;;
13991;SDS011;7070;53.586;9.692;2023-04-22T11:35:16;0.30;;;0.30;;
13991;SDS011;7070;53.586;9.692;2023-04-22T11:37:47;0.30;;;0.30;;
13991;SDS011;7070;53.586;9.692;2023-04-22T11:40:15;0.30;;;0.30;;
13991;SDS011;7070;53.586;9.692;2023-04-22T11:42:43;0.30;;;0.30;;
13991;SDS011;7070;53.586;9.692;2023-04-22T11:45:10;0.20;;;0.20;;
13991;SDS011;7070;53.586;9.692;2023-04-22T11:47:38;0.30;;;0.30;;
13991;SDS011;7070;53.586;9.692;2023-04-22T11:50:06;0.30;;;0.30;;
13991;SDS011;7070;53.586;9.692;2023-04-22T11:52:43;0.30;;;0.30;;
13991;SDS011;7070;53.586;9.692;2023-04-22T11:55:13;0.27;;;0.27;;
13991;SDS011;7070;53.586;9.692;2023-04-22T11:57:40;0.30;;;0.30;;
13991;SDS011;7070;53.586;9.692;2023-04-22T12:00:09;0.30;;;0.30;;
13991;SDS011;7070;53.586;9.692;2023-04-22T12:02:39;0.23;;;0.23;;
13991;SDS011;7070;53.586;9.692;2023-04-22T12:05:09;0.30;;;0.30;;
13991;SDS011;7070;53.586;9.692;2023-04-22T12:07:37;0.20;;;0.20;;
13991;SDS011;7070;53.586;9.692;2023-04-22T12:10:07;0.20;;;0.20;;
13991;SDS011;7070;53.586;9.692;2023-04-22T12:12:37;0.30;;;0.30;;
13991;SDS011;7070;53.586;9.692;2023-04-22T12:15:08;0.30;;;0.30;;
13991;SDS011;7070;53.586;9.692;2023-04-22T12:17:36;0.20;;;0.20;;
13991;SDS011;7070;53.586;9.692;2023-04-22T12:20:03;0.20;;;0.20;;
13991;SDS011;7070;53.586;9.692;2023-04-22T12:22:32;0.20;;;0.20;;
13991;SDS011;7070;53.586;9.692;2023-04-22T12:24:59;0.20;;;0.20;;
13991;SDS011;7070;53.586;9.692;2023-04-22T12:27:28;0.23;;;0.23;;
13991;SDS011;7070;53.586;9.692;2023-04-22T12:29:56;0.30;;;0.30;;
13991;SDS011;7070;53.586;9.692;2023-04-22T12:32:24;0.20;;;0.20;;
13991;SDS011;7070;53.586;9.692;2023-04-22T12:34:51;0.20;;;0.20;;
13991;SDS011;7070;53.586;9.692;2023-04-22T12:37:18;0.30;;;0.30;;
13991;SDS011;7070;53.586;9.692;2023-04-22T12:39:45;0.20;;;0.20;;
13991;SDS011;7070;53.586;9.692;2023-04-22T12:42:13;0.30;;;0.30;;
13991;SDS011;7070;53.586;9.692;2023-04-22T12:44:41;0.30;;;0.30;;
13991;SDS011;7070;53.586;9.692;2023-04-22T12:47:08;0.30;;;0.30;;
13991;SDS011;7070;53.586;9.692;2023-04-22T12:49:35;0.20;;;0.20;;
13991;SDS011;7070;53.586;9.692;2023-04-22T12:52:03;0.20;;;0.20;;
13991;SDS011;7070;53.586;9.692;2023-04-22T12:54:31;0.20;;;0.20;;
13991;SDS011;7070;53.586;9.692;2023-04-22T12:56:57;0.30;;;0.30;;
13991;SDS011;7070;53.586;9.692;2023-04-22T12:59:25;0.30;;;0.30;;
13991;SDS011;7070;53.586;9.692;2023-04-22T13:01:53;0.30;;;0.30;;
13991;SDS011;7070;53.586;9.692;2023-04-22T13:04:21;0.30;;;0.30;;
13991;SDS011;7070;53.586;9.692;2023-04-22T13:06:48;0.30;;;0.30;;
13991;SDS011;7070;53.586;9.692;2023-04-22T13:09:20;0.30;;;0.30;;
13991;SDS011;7070;53.586;9.692;2023-04-22T13:11:48;0.30;;;0.30;;
13991;SDS011;7070;53.586;9.692;2023-04-22T13:14:15;0.20;;;0.20;;
13991;SDS011;7070;53.586;9.692;2023-04-22T13:16:42;0.30;;;0.30;;
13991;SDS011;7070;53.586;9.692;2023-04-22T13:19:10;0.20;;;0.20;;
13991;SDS011;7070;53.586;9.692;2023-04-22T13:21:37;0.20;;;0.20;;
13991;SDS011;7070;53.586;9.692;2023-04-22T13:24:04;0.20;;;0.20;;
13991;SDS011;7070;53.586;9.692;2023-04-22T13:26:31;0.20;;;0.20;;
13991;SDS011;7070;53.586;9.692;2023-04-22T13:28:58;0.30;;;0.30;;
13991;SDS011;7070;53.586;9.692;2023-04-22T13:31:25;0.20;;;0.20;;
13991;SDS011;7070;53.586;9.692;2023-04-22T13:33:52;0.20;;;0.20;;
13991;SDS011;7070;53.586;9.692;2023-04-22T13:36:20;0.20;;;0.20;;
13991;SDS011;7070;53.586;9.692;2023-04-22T13:38:47;0.30;;;0.30;;
13991;SDS011;7070;53.586;9.692;2023-04-22T13:41:15;0.30;;;0.30;;
13991;SDS011;7070;53.586;9.692;2023-04-22T13:43:42;0.30;;;0.30;;
13991;SDS011;7070;53.586;9.692;2023-04-22T13:46:08;0.30;;;0.30;;
13991;SDS011;7070;53.586;9.692;2023-04-22T13:48:35;0.25;;;0.25;;
13991;SDS011;7070;53.586;9.692;2023-04-22T13:51:02;0.20;;;0.20;;
13991;SDS011;7070;53.586;9.692;2023-04-22T13:53:31;0.20;;;0.20;;
13991;SDS011;7070;53.586;9.692;2023-04-22T13:55:58;0.30;;;0.30;;
13991;SDS011;7070;53.586;9.692;2023-04-22T13:58:25;0.20;;;0.20;;
13991;SDS011;7070;53.586;9.692;2023-04-22T14:00:51;0.20;;;0.20;;
13991;SDS011;7070;53.586;9.692;2023-04-22T14:03:18;0.30;;;0.30;;
13991;SDS011;7070;53.586;9.692;2023-04-22T14:05:45;0.20;;;0.20;;
13991;SDS011;7070;53.586;9.692;2023-04-22T14:08:12;0.20;;;0.20;;
13991;SDS011;7070;53.586;9.692;2023-04-22T14:10:40;0.20;;;0.20;;
13991;SDS011;7070;53.586;9.692;2023-04-22T14:13:07;0.25;;;0.25;;
13991;SDS011;7070;53.586;9.692;2023-04-22T14:15:34;0.30;;;0.30;;
13991;SDS011;7070;53.586;9.692;2023-04-22T14:18:01;0.30;;;0.30;;
13991;SDS011;7070;53.586;9.692;2023-04-22T14:20:28;0.20;;;0.20;;
13991;SDS011;7070;53.586;9.692;2023-04-22T14:22:55;0.20;;;0.20;;
13991;SDS011;7070;53.586;9.692;2023-04-22T14:25:22;0.20;;;0.20;;
13991;SDS011;7070;53.586;9.692;2023-04-22T14:27:50;0.20;;;0.20;;
13991;SDS011;7070;53.586;9.692;2023-04-22T14:30:17;0.20;;;0.20;;
13991;SDS011;7070;53.586;9.692;2023-04-22T14:32:45;0.28;;;0.28;;
13991;SDS011;7070;53.586;9.692;2023-04-22T14:35:12;0.30;;;0.30;;
13991;SDS011;7070;53.586;9.692;2023-04-22T14:37:39;0.20;;;0.20;;
13991;SDS011;7070;53.586;9.692;2023-04-22T14:40:09;0.20;;;0.20;;
13991;SDS011;7070;53.586;9.692;2023-04-22T14:42:37;0.20;;;0.20;;
13991;SDS011;7070;53.586;9.692;2023-04-22T14:45:06;0.20;;;0.20;;
13991;SDS011;7070;53.586;9.692;2023-04-22T14:47:33;0.20;;;0.20;;
13991;SDS011;7070;53.586;9.692;2023-04-22T14:50:00;0.25;;;0.25;;
13991;SDS011;7070;53.586;9.692;2023-04-22T14:52:27;0.20;;;0.20;;
13991;SDS011;7070;53.586;9.692;2023-04-22T14:54:56;0.30;;;0.30;;
13991;SDS011;7070;53.586;9.692;2023-04-22T14:57:23;0.20;;;0.20;;
13991;SDS011;7070;53.586;9.692;2023-04-22T14:59:50;0.30;;;0.30;;
13991;SDS011;7070;53.586;9.692;2023-04-22T15:02:18;0.30;;;0.30;;
13991;SDS011;7070;53.586;9.692;2023-04-22T15:04:45;0.30;;;0.30;;
13991;SDS011;7070;53.586;9.692;2023-04-22T15:07:12;0.20;;;0.20;;
13991;SDS011;7070;53.586;9.692;2023-04-22T15:09:39;0.20;;;0.20;;